Time;durP1;ratioP1;P1;durP2;ratioP2;P2;SDS_P1;SDS_P2;PMS_P1;PMS_P2;Temp;Humidity;BMP_temperature;BMP_pressure;BME280_temperature;BME280_humidity;BME280_pressure;Samples;Min_cycle;Max_cycle;Signal;HPM_P1;HPM_P2
2023/05/06 00:02:03;;;;;;;10.18;6.75;;;;;;;11.88;100.00;100477.28;5071520;28;20055;-74
2023/05/06 00:04:29;;;;;;;9.40;6.53;;;;;;;11.28;100.00;100406.44;5071264;28;20024;-74
2023/05/06 00:06:56;;;;;;;7.88;6.20;;;;;;;11.45;100.00;100463.88;5071241;28;20027;-74
2023/05/06 00:09:22;;;;;;;8.93;6.47;;;;;;;11.08;100.00;100457.44;5071508;28;20102;-74
2023/05/06 00:11:49;;;;;;;8.65;6.53;;;;;;;10.84;100.00;100435.09;5070555;28;20055;-74
2023/05/06 00:14:15;;;;;;;11.02;6.80;;;;;;;10.78;100.00;100481.38;5070465;28;20028;-74
2023/05/06 00:16:40;;;;;;;9.27;6.88;;;;;;;10.90;100.00;100480.03;5071062;28;20078;-74
2023/05/06 00:19:05;;;;;;;10.13;7.40;;;;;;;10.92;100.00;100479.28;5070850;28;20028;-74
2023/05/06 00:21:31;;;;;;;8.98;7.03;;;;;;;10.96;100.00;100482.84;5035281;28;20033;-74
2023/05/06 00:23:56;;;;;;;12.02;7.20;;;;;;;10.86;100.00;100458.38;5070716;28;20025;-72
2023/05/06 00:26:22;;;;;;;9.23;7.13;;;;;;;11.08;100.00;100480.69;5069063;28;20407;-74
2023/05/06 00:28:47;;;;;;;10.60;6.95;;;;;;;11.07;100.00;100459.97;5067747;28;20043;-72
2023/05/06 00:31:13;;;;;;;9.23;6.82;;;;;;;11.20;100.00;100482.81;5068133;28;20438;-71
2023/05/06 00:33:38;;;;;;;8.52;6.55;;;;;;;11.16;100.00;100458.59;5068008;28;20494;-72
2023/05/06 00:36:04;;;;;;;8.38;6.95;;;;;;;11.07;100.00;100435.00;5068359;28;20086;-74
2023/05/06 00:38:29;;;;;;;9.23;7.07;;;;;;;10.99;100.00;100439.91;5068111;28;20020;-72
2023/05/06 00:40:55;;;;;;;12.00;6.72;;;;;;;11.14;100.00;100478.31;5068295;28;20039;-74
2023/05/06 00:43:20;;;;;;;9.70;7.10;;;;;;;11.14;100.00;100468.00;5068174;28;20029;-73
2023/05/06 00:45:47;;;;;;;10.43;6.97;;;;;;;11.04;100.00;100463.34;5067914;28;20490;-73
2023/05/06 00:48:13;;;;;;;11.20;7.35;;;;;;;10.95;100.00;100478.50;5050013;28;20032;-73
2023/05/06 00:50:39;;;;;;;12.25;7.72;;;;;;;10.80;100.00;100474.56;5050373;28;20033;-72
2023/05/06 00:53:07;;;;;;;10.63;7.60;;;;;;;10.82;100.00;100479.78;5049907;28;20035;-75
2023/05/06 00:55:32;;;;;;;10.48;7.65;;;;;;;10.73;100.00;100458.75;5067701;28;20032;-74
2023/05/06 00:57:58;;;;;;;9.50;7.05;;;;;;;10.76;100.00;100461.47;5067523;28;20027;-73
2023/05/06 01:00:24;;;;;;;10.05;7.03;;;;;;;10.72;100.00;100467.38;5068015;28;20027;-72
2023/05/06 01:02:49;;;;;;;13.88;7.40;;;;;;;10.61;100.00;100452.34;5050093;28;20535;-74
2023/05/06 01:05:22;;;;;;;10.93;7.50;;;;;;;10.68;100.00;100456.91;5067951;28;20054;-74
2023/05/06 01:08:05;;;;;;;8.85;6.78;;;;;;;10.22;100.00;100371.72;5068191;28;20028;-72
2023/05/06 01:10:52;;;;;;;13.05;7.80;;;;;;;10.77;100.00;100448.59;5067020;28;20028;-77
2023/05/06 01:13:33;;;;;;;10.00;7.00;;;;;;;10.22;100.00;100363.97;5068007;28;20506;-72
2023/05/06 01:16:01;;;;;;;9.75;7.45;;;;;;;10.43;100.00;100426.75;5068132;28;20082;-75
2023/05/06 01:18:31;;;;;;;10.93;6.50;;;;;;;10.43;100.00;100423.25;5068651;28;20170;-76
2023/05/06 01:20:58;;;;;;;10.85;6.90;;;;;;;10.62;100.00;100442.91;5068238;28;20103;-74
2023/05/06 01:23:23;;;;;;;8.55;6.93;;;;;;;10.46;100.00;100420.81;5068177;28;20395;-78
2023/05/06 01:25:49;;;;;;;9.43;7.03;;;;;;;10.67;100.00;100443.94;5069150;28;20035;-78
2023/05/06 01:28:15;;;;;;;8.90;6.63;;;;;;;10.65;100.00;100440.41;5069079;28;20482;-77
2023/05/06 01:30:56;;;;;;;11.13;6.90;;;;;;;10.71;100.00;100440.66;5069162;28;20032;-77
2023/05/06 01:33:54;;;;;;;8.30;6.80;;;;;;;10.67;100.00;100436.19;5068859;28;20021;-76
2023/05/06 01:36:56;;;;;;;9.27;6.40;;;;;;;10.28;100.00;100445.09;5068260;28;20040;-77
2023/05/06 01:39:28;;;;;;;8.73;6.97;;;;;;;9.95;100.00;100440.38;4985808;28;20150;-77
2023/05/06 01:41:58;;;;;;;10.23;6.97;;;;;;;9.31;100.00;100348.50;4985321;28;20161;-77
2023/05/06 01:44:26;;;;;;;10.45;7.32;;;;;;;9.66;100.00;100424.66;4985217;28;20046;-77
2023/05/06 01:46:53;;;;;;;10.05;7.50;;;;;;;9.71;100.00;100417.09;4985831;28;20037;-76
2023/05/06 01:49:21;;;;;;;9.85;8.07;;;;;;;9.81;100.00;100438.97;4985278;28;20039;-76
2023/05/06 01:51:47;;;;;;;11.02;7.38;;;;;;;9.85;100.00;100418.50;4987340;28;20544;-76
2023/05/06 01:54:13;;;;;;;9.77;7.43;;;;;;;10.01;100.00;100411.38;4987250;28;20062;-76
2023/05/06 01:56:39;;;;;;;9.55;6.78;;;;;;;10.27;100.00;100427.84;4971143;28;20062;-76
2023/05/06 01:59:04;;;;;;;9.30;7.18;;;;;;;10.20;100.00;100424.16;4987298;28;20027;-76
2023/05/06 02:01:30;;;;;;;9.35;7.03;;;;;;;10.04;100.00;100399.47;4971319;28;20497;-77
2023/05/06 02:03:55;;;;;;;9.32;7.25;;;;;;;10.29;100.00;100431.38;4987144;28;20053;-76
2023/05/06 02:06:20;;;;;;;9.55;7.65;;;;;;;10.29;100.00;100422.72;4987871;28;20031;-76
2023/05/06 02:08:46;;;;;;;9.57;6.50;;;;;;;10.03;100.00;100438.09;4986776;28;20117;-76
2023/05/06 02:11:11;;;;;;;11.68;7.20;;;;;;;9.21;100.00;100327.53;4986542;28;20069;-75
2023/05/06 02:13:37;;;;;;;11.35;8.15;;;;;;;9.90;100.00;100436.75;4987375;28;20058;-76
2023/05/06 02:16:02;;;;;;;10.75;7.68;;;;;;;9.49;100.00;100353.50;5023144;28;20055;-76
2023/05/06 02:18:28;;;;;;;12.68;7.40;;;;;;;10.07;100.00;100421.03;5069288;28;20033;-76
2023/05/06 02:20:53;;;;;;;10.27;7.05;;;;;;;10.22;100.00;100413.91;5069177;28;20020;-76
2023/05/06 02:23:19;;;;;;;9.35;7.35;;;;;;;10.26;100.00;100431.25;5068760;28;20027;-76
2023/05/06 02:25:45;;;;;;;11.85;7.78;;;;;;;10.17;100.00;100411.13;5068767;28;20025;-76
2023/05/06 02:28:10;;;;;;;9.55;7.53;;;;;;;10.25;100.00;100414.00;5068899;28;20636;-76
2023/05/06 02:30:36;;;;;;;11.30;7.65;;;;;;;10.08;100.00;100400.47;5069343;28;20036;-77
2023/05/06 02:33:02;;;;;;;11.40;7.95;;;;;;;10.37;100.00;100444.59;5069216;28;20021;-77
2023/05/06 02:35:27;;;;;;;11.43;7.85;;;;;;;10.49;100.00;100437.28;5070040;28;20048;-76
2023/05/06 02:37:52;;;;;;;12.15;7.80;;;;;;;10.54;100.00;100444.31;5072131;28;20108;-77
2023/05/06 02:40:18;;;;;;;10.15;7.70;;;;;;;10.15;100.00;100375.78;5054408;28;20116;-76
2023/05/06 02:42:44;;;;;;;12.27;8.13;;;;;;;10.38;100.00;100428.28;5072188;28;20036;-77
2023/05/06 02:45:10;;;;;;;13.77;7.57;;;;;;;10.19;100.00;100387.97;5054037;28;20470;-76
2023/05/06 02:47:36;;;;;;;11.00;7.93;;;;;;;10.57;100.00;100440.16;5072620;28;20025;-76
2023/05/06 02:50:01;;;;;;;11.40;7.45;;;;;;;10.59;100.00;100424.72;5072388;28;20485;-76
2023/05/06 02:52:26;;;;;;;10.65;7.55;;;;;;;10.52;100.00;100402.97;5072016;28;20028;-76
2023/05/06 02:54:53;;;;;;;9.63;7.55;;;;;;;10.79;100.00;100436.66;5071656;28;20038;-76
2023/05/06 02:57:18;;;;;;;15.60;8.68;;;;;;;10.72;100.00;100424.34;5072566;28;20490;-75
2023/05/06 02:59:43;;;;;;;11.70;7.70;;;;;;;10.84;100.00;100445.44;5072471;28;20035;-75
2023/05/06 03:02:09;;;;;;;9.95;7.45;;;;;;;10.70;100.00;100419.94;5072108;28;20464;-76
2023/05/06 03:04:34;;;;;;;16.73;8.10;;;;;;;10.74;100.00;100438.19;5072362;28;20463;-74
2023/05/06 03:07:00;;;;;;;10.77;8.10;;;;;;;10.82;100.00;100441.03;5071908;28;20090;-74
2023/05/06 03:09:25;;;;;;;11.82;8.40;;;;;;;10.77;100.00;100443.44;5071776;28;20524;-72
2023/05/06 03:11:50;;;;;;;11.85;8.45;;;;;;;10.47;100.00;100412.25;5071563;28;20048;-79
2023/05/06 03:14:16;;;;;;;12.15;8.18;;;;;;;10.07;100.00;100395.25;5072423;28;20040;-78
2023/05/06 03:16:41;;;;;;;12.55;9.05;;;;;;;10.08;100.00;100440.84;5072110;28;20024;-80
2023/05/06 03:19:07;;;;;;;11.30;8.15;;;;;;;10.03;100.00;100443.25;5072782;28;20039;-77
2023/05/06 03:21:32;;;;;;;13.15;8.55;;;;;;;10.07;100.00;100437.41;5072053;28;20032;-78
2023/05/06 03:23:58;;;;;;;10.80;8.20;;;;;;;10.23;100.00;100437.97;5072036;28;20032;-79
2023/05/06 03:26:24;;;;;;;10.50;8.02;;;;;;;10.17;100.00;100431.78;5054235;28;20116;-78
2023/05/06 03:28:49;;;;;;;10.48;8.27;;;;;;;10.14;100.00;100446.25;5072361;28;20115;-79
2023/05/06 03:31:15;;;;;;;10.85;8.10;;;;;;;9.97;100.00;100417.22;5072247;28;20040;-78
2023/05/06 03:33:41;;;;;;;12.68;7.80;;;;;;;9.71;100.00;100360.38;5072095;28;20115;-78
2023/05/06 03:36:06;;;;;;;12.93;7.68;;;;;;;10.35;100.00;100453.94;5071711;28;20058;-79
2023/05/06 03:38:32;;;;;;;11.23;7.57;;;;;;;10.35;100.00;100453.94;5071378;28;20471;-78
2023/05/06 03:40:57;;;;;;;10.82;6.85;;;;;;;10.31;100.00;100464.97;5071859;28;20081;-78
2023/05/06 03:43:22;;;;;;;9.35;7.05;;;;;;;10.19;100.00;100468.84;5071640;28;20029;-78
2023/05/06 03:45:48;;;;;;;8.75;6.90;;;;;;;9.51;100.00;100375.09;5071686;28;20452;-79
2023/05/06 03:48:13;;;;;;;9.18;6.72;;;;;;;9.98;100.00;100468.88;5070962;28;20104;-78
2023/05/06 03:50:39;;;;;;;11.50;7.10;;;;;;;9.95;100.00;100485.94;5072104;28;20234;-78
2023/05/06 03:53:05;;;;;;;11.23;7.85;;;;;;;9.70;100.00;100484.94;5071894;28;20024;-78
2023/05/06 03:55:30;;;;;;;9.18;7.00;;;;;;;9.62;100.00;100499.22;5071138;28;20064;-78
2023/05/06 03:57:56;;;;;;;10.82;7.38;;;;;;;9.23;100.00;100417.75;5071452;28;20054;-78
2023/05/06 04:00:21;;;;;;;10.18;7.45;;;;;;;9.69;100.00;100481.50;5053593;28;20790;-79
2023/05/06 04:02:47;;;;;;;11.40;7.78;;;;;;;9.44;100.00;100417.75;5067718;28;20469;-75
2023/05/06 04:05:12;;;;;;;13.57;7.68;;;;;;;9.87;100.00;100480.47;5069016;28;20068;-74
2023/05/06 04:07:38;;;;;;;10.82;7.13;;;;;;;10.05;100.00;100506.09;5070851;28;20516;-74
2023/05/06 04:10:04;;;;;;;10.77;7.10;;;;;;;10.04;100.00;100506.91;5071480;28;20025;-74
2023/05/06 04:12:29;;;;;;;10.80;7.60;;;;;;;10.11;100.00;100503.75;5070981;28;20128;-74
2023/05/06 04:14:55;;;;;;;11.80;7.80;;;;;;;10.16;100.00;100506.53;5071003;28;20051;-74
2023/05/06 04:17:20;;;;;;;11.18;8.40;;;;;;;9.86;100.00;100443.47;5071229;28;20107;-74
2023/05/06 04:19:46;;;;;;;11.02;7.90;;;;;;;10.23;100.00;100513.69;5071057;28;20036;-73
2023/05/06 04:22:11;;;;;;;10.23;7.75;;;;;;;10.25;100.00;100508.59;5070843;28;20040;-73
2023/05/06 04:24:37;;;;;;;9.80;7.55;;;;;;;10.31;100.00;100509.69;5071102;28;20380;-73
2023/05/06 04:27:03;;;;;;;13.10;8.82;;;;;;;10.44;100.00;100511.09;5070695;28;20090;-73
2023/05/06 04:29:28;;;;;;;10.73;8.15;;;;;;;10.50;100.00;100501.00;5071532;28;20029;-73
2023/05/06 04:31:54;;;;;;;13.02;8.27;;;;;;;10.40;100.00;100488.56;5070991;28;20036;-73
2023/05/06 04:34:19;;;;;;;10.63;7.90;;;;;;;10.32;100.00;100459.00;5070801;28;20500;-73
2023/05/06 04:36:46;;;;;;;9.50;7.82;;;;;;;10.62;100.00;100504.88;5070227;28;20090;-73
2023/05/06 04:39:12;;;;;;;10.40;8.20;;;;;;;10.62;100.00;100510.91;5070362;28;20548;-73
2023/05/06 04:41:38;;;;;;;10.32;8.20;;;;;;;10.62;100.00;100507.44;5070910;28;20028;-74
2023/05/06 04:44:04;;;;;;;10.82;8.07;;;;;;;10.33;100.00;100440.06;5070731;28;20059;-73
2023/05/06 04:46:29;;;;;;;12.55;8.55;;;;;;;10.90;100.00;100522.22;5052775;28;20154;-73
2023/05/06 04:48:56;;;;;;;10.95;8.27;;;;;;;10.96;100.00;100521.59;5070206;28;20036;-74
2023/05/06 04:51:22;;;;;;;10.82;8.27;;;;;;;10.95;100.00;100515.56;5052333;28;20478;-73
2023/05/06 04:53:47;;;;;;;10.82;8.25;;;;;;;10.96;100.00;100519.88;5070703;28;20028;-74
2023/05/06 04:56:13;;;;;;;10.50;8.43;;;;;;;10.98;100.00;100512.22;5070038;28;20409;-73
2023/05/06 04:58:38;;;;;;;10.02;8.38;;;;;;;10.90;100.00;100501.56;5069461;28;20028;-73
2023/05/06 05:01:08;;;;;;;9.75;8.35;;;;;;;11.14;100.00;100534.28;5069946;28;20036;-73
2023/05/06 05:03:33;;;;;;;;;;;;;;;11.19;100.00;100530.19;5070813;28;20170;-74
2023/05/06 05:05:59;;;;;;;11.45;7.90;;;;;;;11.27;100.00;100527.84;5070249;28;19964;-75
2023/05/06 05:08:25;;;;;;;9.75;7.90;;;;;;;11.36;100.00;100532.47;5070314;28;20057;-74
2023/05/06 05:10:50;;;;;;;9.65;7.60;;;;;;;11.49;100.00;100534.66;5051297;28;20040;-74
2023/05/06 05:13:15;;;;;;;12.15;8.48;;;;;;;11.15;100.00;100456.84;5070306;28;20088;-74
2023/05/06 05:15:41;;;;;;;12.07;7.32;;;;;;;11.71;100.00;100530.19;5069585;28;20068;-73
2023/05/06 05:18:06;;;;;;;9.35;7.63;;;;;;;11.92;100.00;100540.38;5070141;28;20052;-74
2023/05/06 05:20:32;;;;;;;9.73;7.50;;;;;;;12.04;100.00;100525.28;5069103;28;20036;-75
2023/05/06 05:22:57;;;;;;;9.40;7.57;;;;;;;11.98;100.00;100488.84;5069926;28;20430;-75
2023/05/06 05:25:23;;;;;;;9.70;7.07;;;;;;;12.30;100.00;100520.03;5069970;28;20036;-75
2023/05/06 05:27:48;;;;;;;8.95;6.88;;;;;;;12.40;100.00;100518.59;5069968;28;20035;-75
2023/05/06 05:30:14;;;;;;;11.60;8.20;;;;;;;12.36;100.00;100496.94;5069345;28;20032;-77
2023/05/06 05:32:42;;;;;;;12.73;7.60;;;;;;;12.62;100.00;100528.78;5066039;28;20021;-77
2023/05/06 05:35:09;;;;;;;11.70;7.25;;;;;;;12.65;100.00;100503.78;5051275;28;20674;-78
2023/05/06 05:37:34;;;;;;;10.52;7.40;;;;;;;12.52;100.00;100461.97;5067163;28;20023;-78
2023/05/06 05:40:00;;;;;;;11.57;7.47;;;;;;;12.95;100.00;100506.38;5059519;28;20036;-78
2023/05/06 05:42:26;;;;;;;10.50;7.85;;;;;;;13.07;100.00;100511.91;5043035;28;20043;-77
2023/05/06 05:44:52;;;;;;;11.18;8.05;;;;;;;13.20;100.00;100514.81;5069213;28;20020;-78
2023/05/06 05:47:17;;;;;;;12.05;7.50;;;;;;;13.31;100.00;100523.78;5067161;28;20532;-78
2023/05/06 05:49:43;;;;;;;8.85;7.40;;;;;;;12.81;100.00;100407.53;5062497;28;20115;-77
2023/05/06 05:52:09;;;;;;;9.88;7.22;;;;;;;13.50;100.00;100508.72;5066614;28;20111;-77
2023/05/06 05:54:34;;;;;;;10.98;7.47;;;;;;;13.64;100.00;100524.63;5060147;28;20406;-77
2023/05/06 05:57:00;;;;;;;10.93;7.50;;;;;;;13.79;100.00;100535.38;5058203;28;20526;-78
2023/05/06 05:59:26;;;;;;;11.25;6.55;;;;;;;13.76;100.00;100517.16;5058873;28;20101;-77
2023/05/06 06:01:51;;;;;;;13.02;7.53;;;;;;;13.58;100.00;100458.78;5059657;28;20029;-76
2023/05/06 06:04:17;;;;;;;9.90;7.30;;;;;;;13.98;100.00;100508.19;5057961;28;20013;-76
2023/05/06 06:06:42;;;;;;;8.38;6.80;;;;;;;14.14;100.00;100521.50;5058746;28;20025;-77
2023/05/06 06:09:10;;;;;;;8.93;7.13;;;;;;;14.20;100.00;100525.09;5059625;28;20029;-76
2023/05/06 06:11:35;;;;;;;9.82;7.03;;;;;;;13.63;100.00;100399.22;5060888;28;20041;-77
2023/05/06 06:14:00;;;;;;;9.85;7.30;;;;;;;14.31;100.00;100512.38;5063846;28;20031;-76
2023/05/06 06:16:26;;;;;;;8.80;7.05;;;;;;;14.42;100.00;100515.22;5045028;28;20440;-76
2023/05/06 06:18:52;;;;;;;9.38;7.25;;;;;;;14.48;100.00;100509.25;5063150;28;20017;-74
2023/05/06 06:21:18;;;;;;;10.60;6.90;;;;;;;14.44;100.00;100497.06;5059430;28;20071;-75
2023/05/06 06:23:43;;;;;;;10.10;7.30;;;;;;;14.34;100.00;100429.34;5059423;28;20087;-76
2023/05/06 06:26:08;;;;;;;12.25;7.78;;;;;;;14.89;100.00;100517.06;5064140;28;20083;-76
2023/05/06 06:28:35;;;;;;;8.65;7.22;;;;;;;14.86;100.00;100478.91;5063738;28;20496;-77
2023/05/06 06:31:00;;;;;;;10.55;7.63;;;;;;;14.94;100.00;100494.69;5060508;28;20028;-77
2023/05/06 06:33:26;;;;;;;9.85;6.90;;;;;;;15.01;100.00;100473.13;5071012;28;20028;-76
2023/05/06 06:35:52;;;;;;;12.95;7.07;;;;;;;14.81;100.00;100425.09;5072862;28;20051;-77
2023/05/06 06:38:17;;;;;;;10.60;7.30;;;;;;;15.52;100.00;100505.25;5073359;28;20474;-77
2023/05/06 06:40:43;;;;;;;10.48;7.10;;;;;;;15.19;100.00;100424.94;5073219;28;20027;-77
2023/05/06 06:43:08;;;;;;;11.15;6.57;;;;;;;15.82;100.00;100492.75;5072600;28;20474;-75
2023/05/06 06:45:33;;;;;;;8.32;5.97;;;;;;;15.99;100.00;100482.63;5072922;28;20143;-75
2023/05/06 06:47:59;;;;;;;7.72;6.03;;;;;;;15.82;100.00;100417.25;5072214;28;20497;-76
2023/05/06 06:50:25;;;;;;;9.48;5.68;;;;;;;16.46;100.00;100481.50;5037109;28;20051;-76
2023/05/06 06:52:51;;;;;;;8.27;4.90;;;;;;;16.63;100.00;100490.41;5072732;28;20024;-78
2023/05/06 06:55:16;;;;;;;8.25;5.20;;;;;;;16.72;100.00;100484.44;5073008;28;20051;-75
2023/05/06 06:57:43;;;;;;;8.02;4.40;;;;;;;16.98;99.04;100496.94;5072921;28;20375;-76
2023/05/06 07:00:09;;;;;;;9.18;4.90;;;;;;;17.05;95.06;100503.13;5072785;28;20040;-77
2023/05/06 07:02:35;;;;;;;10.65;4.60;;;;;;;16.66;98.28;100412.25;5054277;28;20517;-80
2023/05/06 07:05:01;;;;;;;7.90;5.00;;;;;;;16.87;95.95;100447.22;5072511;28;20032;-77
2023/05/06 07:07:27;;;;;;;7.93;4.85;;;;;;;17.35;95.41;100494.72;5072676;28;20025;-75
2023/05/06 07:09:52;;;;;;;6.20;4.50;;;;;;;17.52;94.39;100497.50;5072135;28;20032;-73
2023/05/06 07:12:19;;;;;;;8.50;4.32;;;;;;;17.58;91.55;100501.88;5072197;28;20821;-74
2023/05/06 07:14:45;;;;;;;7.40;4.30;;;;;;;17.43;92.55;100461.75;5072467;28;20119;-75
2023/05/06 07:17:10;;;;;;;5.82;4.40;;;;;;;17.76;90.67;100504.63;5072085;28;20036;-70
2023/05/06 07:19:36;;;;;;;9.77;4.57;;;;;;;17.89;90.70;100515.19;5072660;28;20016;-73
2023/05/06 07:22:01;;;;;;;10.00;4.30;;;;;;;17.62;92.35;100435.78;5071118;28;20124;-71
2023/05/06 07:24:27;;;;;;;9.32;4.78;;;;;;;18.04;90.06;100490.94;5072315;28;20402;-74
2023/05/06 07:26:53;;;;;;;7.05;4.25;;;;;;;17.96;91.69;100475.22;5072509;28;20111;-72
2023/05/06 07:29:18;;;;;;;8.52;4.07;;;;;;;18.29;90.71;100499.78;5072187;28;20108;-73
2023/05/06 07:31:44;;;;;;;6.05;3.80;;;;;;;18.23;91.13;100491.91;5071474;28;20041;-73
2023/05/06 07:34:09;;;;;;;5.35;3.85;;;;;;;17.93;92.15;100443.81;5071798;28;20028;-73
2023/05/06 07:36:39;;;;;;;9.98;3.90;;;;;;;18.30;90.50;100491.09;5071990;28;20035;-74
2023/05/06 07:39:27;;;;;;;6.75;3.72;;;;;;;18.56;86.96;100500.81;5054226;28;20021;-73
2023/05/06 07:41:53;;;;;;;7.45;3.50;;;;;;;18.56;87.09;100467.69;5009069;28;20033;-73
2023/05/06 07:44:18;;;;;;;5.70;3.15;;;;;;;18.31;84.87;100416.19;5009525;28;20495;-74
2023/05/06 07:46:43;;;;;;;7.18;3.13;;;;;;;18.77;82.96;100463.41;5009760;28;20037;-72
2023/05/06 07:49:09;;;;;;;7.97;3.63;;;;;;;19.06;82.86;100499.28;5009877;28;20038;-71
2023/05/06 07:51:34;;;;;;;6.15;3.10;;;;;;;19.04;83.41;100501.00;5009091;28;20087;-77
2023/05/06 07:54:00;;;;;;;12.63;3.60;;;;;;;19.17;83.35;100483.59;5009513;28;20149;-75
2023/05/06 07:56:25;;;;;;;6.20;3.00;;;;;;;19.34;80.74;100486.22;5009267;28;20053;-73
2023/05/06 07:58:51;;;;;;;10.75;3.28;;;;;;;19.35;81.28;100481.03;5009498;28;20124;-73
2023/05/06 08:01:16;;;;;;;5.85;3.30;;;;;;;19.49;81.94;100474.88;5006549;28;20459;-73
2023/05/06 08:03:43;;;;;;;5.63;3.10;;;;;;;19.53;80.60;100477.53;5009299;28;20038;-73
2023/05/06 08:06:09;;;;;;;7.05;3.00;;;;;;;19.67;78.88;100487.13;5009199;28;20029;-72
2023/05/06 08:08:34;;;;;;;8.77;3.25;;;;;;;19.73;78.31;100480.13;5009057;28;20049;-72
2023/05/06 08:11:01;;;;;;;7.68;3.30;;;;;;;19.60;78.80;100477.53;5009235;28;20022;-73
2023/05/06 08:13:27;;;;;;;11.65;3.33;;;;;;;19.49;80.53;100477.50;5054060;28;20105;-72
2023/05/06 08:15:52;;;;;;;5.00;3.00;;;;;;;19.53;77.72;100472.28;5008971;28;20042;-72
2023/05/06 08:18:18;;;;;;;5.38;3.03;;;;;;;19.53;79.17;100469.66;5009076;28;20053;-73
2023/05/06 08:20:43;;;;;;;5.07;2.88;;;;;;;19.56;77.82;100488.00;5008906;28;20489;-73
2023/05/06 08:23:09;;;;;;;7.47;3.10;;;;;;;19.56;80.73;100479.25;5008843;28;20096;-73
2023/05/06 08:25:34;;;;;;;7.55;3.35;;;;;;;19.47;79.91;100474.91;5008798;28;20034;-72
2023/05/06 08:28:00;;;;;;;4.25;2.70;;;;;;;19.36;77.84;100461.78;5008395;28;20218;-72
2023/05/06 08:30:25;;;;;;;11.95;3.15;;;;;;;19.24;77.58;100425.16;5008807;28;20034;-73
2023/05/06 08:32:51;;;;;;;6.40;3.10;;;;;;;19.58;76.69;100469.69;5008198;28;20103;-73
2023/05/06 08:35:17;;;;;;;16.88;3.55;;;;;;;19.51;76.96;100481.88;5008412;28;20126;-70
2023/05/06 08:37:42;;;;;;;5.38;2.75;;;;;;;19.62;76.39;100463.56;5008328;28;20038;-72
2023/05/06 08:40:17;;;;;;;6.47;3.00;;;;;;;19.46;77.54;100448.72;5008775;28;20026;-74
2023/05/06 08:42:45;;;;;;;7.50;3.15;;;;;;;19.63;76.65;100475.78;5004435;28;20590;-73
2023/05/06 08:45:10;;;;;;;7.80;2.70;;;;;;;19.69;78.86;100478.41;5006080;28;20116;-76
2023/05/06 08:47:36;;;;;;;5.03;2.55;;;;;;;19.73;78.37;100476.66;5057514;28;20171;-77
2023/05/06 08:50:02;;;;;;;4.22;2.50;;;;;;;19.44;75.87;100406.84;5069855;28;20472;-72
2023/05/06 08:52:27;;;;;;;7.00;2.95;;;;;;;19.83;78.20;100482.78;5050469;28;20134;-73
2023/05/06 08:54:59;;;;;;;7.72;2.70;;;;;;;19.66;77.47;100475.75;5051132;28;20568;-73
2023/05/06 08:57:28;;;;;;;8.75;2.85;;;;;;;19.71;76.55;100479.28;5069920;28;20028;-72
2023/05/06 08:59:53;;;;;;;6.97;2.50;;;;;;;19.69;76.75;100488.00;4968509;28;20097;-74
2023/05/06 09:02:20;;;;;;;5.00;2.85;;;;;;;19.78;74.45;100484.50;4967350;28;20440;-72
2023/05/06 09:04:47;;;;;;;7.45;2.72;;;;;;;19.86;72.82;100472.28;4951664;28;20198;-72
2023/05/06 09:07:12;;;;;;;7.57;3.08;;;;;;;20.04;72.95;100484.50;4951566;28;20043;-73
2023/05/06 09:09:37;;;;;;;6.35;2.55;;;;;;;20.13;69.60;100471.38;4968272;28;20106;-73
2023/05/06 09:12:04;;;;;;;7.82;3.13;;;;;;;20.33;69.94;100484.41;4967094;28;20582;-73
2023/05/06 09:14:30;;;;;;;12.45;2.90;;;;;;;20.62;71.42;100477.34;4968398;28;20410;-70
2023/05/06 09:16:56;;;;;;;10.95;2.53;;;;;;;20.94;68.72;100476.34;4968659;28;20031;-69
2023/05/06 09:19:22;;;;;;;12.85;3.20;;;;;;;21.10;66.15;100477.13;4968933;28;20030;-70
2023/05/06 09:21:50;;;;;;;18.52;4.60;;;;;;;21.38;65.94;100471.66;4968498;28;20031;-72
2023/05/06 09:24:16;;;;;;;21.63;4.00;;;;;;;21.49;67.06;100477.69;4968180;28;20031;-71
2023/05/06 09:26:43;;;;;;;4.97;2.50;;;;;;;21.29;63.30;100459.47;4968067;28;20256;-71
2023/05/06 09:29:09;;;;;;;16.77;3.40;;;;;;;20.79;63.92;100391.56;4936711;28;20070;-72
2023/05/06 09:31:42;;;;;;;9.85;2.80;;;;;;;20.90;64.65;100462.34;5047635;28;20110;-70
2023/05/06 09:34:08;;;;;;;5.75;2.25;;;;;;;21.10;64.21;100459.59;5069465;28;20024;-70
2023/05/06 09:36:33;;;;;;;14.60;3.03;;;;;;;21.19;64.32;100444.69;5067126;28;20028;-70
2023/05/06 09:38:59;;;;;;;7.93;2.90;;;;;;;21.42;61.92;100468.13;5068940;28;20027;-70
2023/05/06 09:41:24;;;;;;;7.32;2.63;;;;;;;20.59;63.79;100343.59;5069330;28;20028;-69
2023/05/06 09:43:55;;;;;;;5.38;2.63;;;;;;;21.39;63.65;100471.66;5051822;28;20025;-72
2023/05/06 09:46:22;;;;;;;10.90;3.33;;;;;;;21.60;62.52;100477.66;5069654;28;20025;-72
2023/05/06 09:48:50;;;;;;;5.28;2.60;;;;;;;21.47;61.57;100468.94;5050830;28;20040;-72
2023/05/06 09:51:17;;;;;;;12.82;3.50;;;;;;;21.47;60.34;100451.47;5071786;28;20052;-72
2023/05/06 09:53:45;;;;;;;15.20;3.20;;;;;;;21.83;62.63;100472.19;5072883;28;20508;-66
2023/05/06 09:56:12;;;;;;;7.25;2.60;;;;;;;21.73;59.85;100468.78;5071903;28;20079;-69
2023/05/06 09:58:37;;;;;;;11.77;3.10;;;;;;;21.72;59.84;100464.41;5068809;28;20038;-73
2023/05/06 10:01:07;;;;;;;7.40;2.33;;;;;;;21.36;59.62;100423.53;5054180;28;20040;-72
2023/05/06 10:03:34;;;;;;;8.38;2.90;;;;;;;21.34;60.44;100424.41;5072682;28;20119;-74
2023/05/06 10:06:01;;;;;;;8.60;2.80;;;;;;;21.46;60.85;100470.72;5071514;28;20054;-73
2023/05/06 10:08:27;;;;;;;6.40;3.10;;;;;;;20.98;61.11;100392.31;5073312;28;20516;-70
2023/05/06 10:10:53;;;;;;;14.60;3.53;;;;;;;21.62;63.26;100458.38;5054740;28;20150;-67
2023/05/06 10:13:21;;;;;;;7.97;2.80;;;;;;;21.96;57.85;100458.03;5071123;28;20056;-71
2023/05/06 10:15:48;;;;;;;12.80;3.58;;;;;;;22.08;58.06;100457.03;5070506;28;20028;-69
2023/05/06 10:18:21;;;;;;;9.13;2.85;;;;;;;21.88;59.17;100451.13;5071037;28;20033;-69
2023/05/06 10:20:48;;;;;;;4.07;2.60;;;;;;;21.79;58.56;100459.97;5036116;28;20033;-67
2023/05/06 10:23:50;;;;;;;8.63;2.78;;;;;;;21.58;59.81;100463.66;5071940;28;20029;-70
2023/05/06 10:26:18;;;;;;;5.80;2.35;;;;;;;21.70;59.61;100488.97;5070628;28;20036;-68
2023/05/06 10:28:48;;;;;;;7.70;2.83;;;;;;;22.23;60.31;100474.41;5070930;28;20501;-69
2023/05/06 10:31:15;;;;;;;10.93;3.22;;;;;;;22.64;57.74;100487.97;5070515;28;20032;-69
2023/05/06 10:33:45;;;;;;;5.75;2.75;;;;;;;22.77;60.88;100473.75;5071341;28;20029;-72
2023/05/06 10:36:19;;;;;;;5.00;2.80;;;;;;;22.78;57.71;100462.34;5058133;28;20040;-73
2023/05/06 10:38:48;;;;;;;7.53;2.60;;;;;;;22.12;58.44;100398.28;5072262;28;20115;-69
2023/05/06 10:41:14;;;;;;;6.50;3.00;;;;;;;22.31;60.25;100476.94;5070657;28;20111;-68
2023/05/06 10:43:41;;;;;;;9.13;3.40;;;;;;;22.14;58.19;100469.22;5070247;28;20526;-71
2023/05/06 10:46:08;;;;;;;7.55;2.75;;;;;;;22.05;57.18;100470.22;5070269;28;20032;-70
2023/05/06 10:48:39;;;;;;;5.65;2.67;;;;;;;21.89;59.58;100469.47;5070690;28;20017;-70
2023/05/06 10:51:22;;;;;;;10.52;2.92;;;;;;;22.04;58.15;100457.94;5070427;28;20075;-77
2023/05/06 10:54:07;;;;;;;7.60;2.97;;;;;;;22.14;60.42;100462.25;5072396;28;20036;-73
2023/05/06 10:56:33;;;;;;;4.18;2.60;;;;;;;21.97;60.25;100456.28;5072352;28;20395;-71
2023/05/06 10:59:10;;;;;;;8.60;2.60;;;;;;;22.06;61.34;100466.69;5072524;28;20449;-75
2023/05/06 11:01:37;;;;;;;8.52;2.63;;;;;;;22.19;57.42;100464.78;5072328;28;20500;-74
2023/05/06 11:04:10;;;;;;;8.35;2.38;;;;;;;22.28;55.19;100471.72;5071841;28;20498;-71
2023/05/06 11:06:43;;;;;;;6.13;2.60;;;;;;;22.23;55.17;100463.00;5072118;28;20036;-72
2023/05/06 11:09:22;;;;;;;4.32;2.33;;;;;;;22.04;56.26;100471.09;5071863;28;20060;-72
2023/05/06 11:12:01;;;;;;;7.03;3.10;;;;;;;21.46;57.33;100388.44;5072080;28;20102;-75
2023/05/06 11:14:34;;;;;;;4.57;2.50;;;;;;;21.84;60.45;100457.28;5071820;28;20028;-73
2023/05/06 11:17:03;;;;;;;6.32;2.40;;;;;;;21.59;59.76;100397.09;5071748;28;20028;-75